Time;durP1;ratioP1;P1;durP2;ratioP2;P2;SDS_P1;SDS_P2;PMS_P1;PMS_P2;Temp;Humidity;BMP_temperature;BMP_pressure;BME280_temperature;BME280_humidity;BME280_pressure;Samples;Min_cycle;Max_cycle;Signal;HPM_P1;HPM_P2
2022/04/12 00:00:30;;;;;;;21.60;11.27;;;179.40;2252.80;;;;;;5012207;28;19963;-79
2022/04/12 00:02:56;;;;;;;25.60;12.15;;;179.40;2252.80;;;;;;5013648;28;20500;-76
2022/04/12 00:05:22;;;;;;;;;;;179.30;2252.80;;;;;;5014912;28;20466;-80
2022/04/12 00:07:47;;;;;;;26.77;11.60;;;179.20;2252.80;;;;;;5012379;28;19968;-76
2022/04/12 00:10:13;;;;;;;;;;;154.50;2252.80;;;;;;5003453;28;20149;-75
2022/04/12 00:12:40;;;;;;;24.63;11.95;;;179.30;2252.80;;;;;;5003920;28;19909;-75
2022/04/12 00:15:08;;;;;;;29.00;12.65;;;179.30;2252.80;;;;;;5007302;28;20022;-76
2022/04/12 00:20:20;;;;;;;26.77;13.65;;;154.50;2252.80;;;;;;5005439;28;20382;-76
2022/04/12 00:22:47;;;;;;;22.02;13.15;;;179.30;2252.80;;;;;;5002011;28;20085;-76
2022/04/12 00:25:13;;;;;;;29.80;12.82;;;179.60;2252.80;;;;;;5003364;28;20182;-75
2022/04/12 00:27:41;;;;;;;22.30;12.38;;;179.70;2252.80;;;;;;5003599;28;20121;-76
2022/04/12 00:30:08;;;;;;;20.65;11.95;;;179.90;2252.80;;;;;;5003167;28;20018;-75
2022/04/12 00:32:35;;;;;;;28.55;12.55;;;179.70;2252.80;;;;;;5004553;28;20029;-76
2022/04/12 00:35:03;;;;;;;23.55;11.45;;;179.60;2252.80;;;;;;5001145;28;20022;-82
2022/04/12 00:37:29;;;;;;;22.50;11.25;;;179.30;2252.80;;;;;;5004611;28;20113;-82
2022/04/12 00:39:54;;;;;;;;;;;154.30;2252.80;;;;;;5004692;28;20106;-75
2022/04/12 00:42:21;;;;;;;30.42;12.57;;;154.10;2252.80;;;;;;5005284;28;19905;-77
2022/04/12 00:44:47;;;;;;;24.83;13.70;;;154.10;2252.80;;;;;;5004043;28;20030;-76
2022/04/12 00:47:13;;;;;;;;;;;154.00;2252.80;;;;;;5010225;28;20034;-77
2022/04/12 00:49:39;;;;;;;21.40;12.30;;;153.90;2252.80;;;;;;5006316;28;19913;-76
2022/04/12 00:52:06;;;;;;;;;;;153.80;2252.80;;;;;;5005304;28;20041;-76
2022/04/12 00:54:33;;;;;;;18.85;9.93;;;153.80;2252.80;;;;;;5002058;28;19918;-76
2022/04/12 00:57:00;;;;;;;21.55;11.93;;;128.70;2252.80;;;;;;5004220;28;20427;-76
2022/04/12 00:59:26;;;;;;;25.08;10.82;;;128.90;2252.80;;;;;;5003963;28;20041;-75
2022/04/12 01:01:52;;;;;;;22.05;11.80;;;153.60;2252.80;;;;;;5003088;28;20094;-76
2022/04/12 01:04:19;;;;;;;;;;;128.90;2252.80;;;;;;5002783;28;20030;-76
2022/04/12 01:06:46;;;;;;;20.50;11.88;;;153.60;2252.80;;;;;;5004432;28;19913;-76
2022/04/12 01:09:12;;;;;;;20.80;11.90;;;128.90;2252.80;;;;;;5017997;28;20023;-76
2022/04/12 01:11:39;;;;;;;27.45;12.82;;;128.80;2252.80;;;;;;5002441;28;20033;-76
2022/04/12 01:14:07;;;;;;;24.30;11.52;;;128.90;2252.80;;;;;;5004274;28;20019;-76
2022/04/12 01:16:33;;;;;;;22.25;12.35;;;153.60;2252.80;;;;;;5017306;28;20084;-76
2022/04/12 01:18:59;;;;;;;23.48;12.02;;;128.80;2252.80;;;;;;5002148;28;20036;-75
2022/04/12 01:21:30;;;;;;;;;;;128.70;2252.80;;;;;;5001969;28;20034;-76
2022/04/12 01:24:00;;;;;;;22.17;12.93;;;128.80;2252.80;;;;;;5002626;28;20389;-75
2022/04/12 01:26:25;;;;;;;23.52;12.98;;;128.70;2252.80;;;;;;5003222;28;20458;-76
2022/04/12 01:28:51;;;;;;;;;;;128.50;2252.80;;;;;;5002313;28;20026;-81
2022/04/12 01:31:17;;;;;;;22.92;12.73;;;128.50;2252.80;;;;;;5003680;28;19906;-76
2022/04/12 01:33:42;;;;;;;;;;;128.20;2252.80;;;;;;5007361;28;20026;-81
2022/04/12 01:36:08;;;;;;;27.63;13.55;;;128.00;2252.80;;;;;;5004691;28;19909;-75
2022/04/12 01:38:34;;;;;;;;;;;128.40;2252.80;;;;;;5007727;28;20041;-81
2022/04/12 01:40:59;;;;;;;24.73;13.95;;;128.30;2252.80;;;;;;5008581;28;20354;-77
2022/04/12 01:43:25;;;;;;;;;;;128.10;2252.80;;;;;;5006308;28;20022;-76
2022/04/12 01:45:51;;;;;;;22.30;13.57;;;103.30;2227.20;;;;;;5005483;28;19997;-76
2022/04/12 01:48:16;;;;;;;;;;;103.20;2227.20;;;;;;5007539;28;20018;-76
2022/04/12 01:50:42;;;;;;;27.80;15.30;;;103.20;2227.20;;;;;;5008490;28;19933;-76
2022/04/12 01:53:08;;;;;;;;;;;103.00;2227.20;;;;;;5005778;28;20065;-75
2022/04/12 01:55:34;;;;;;;31.15;16.42;;;103.00;2227.20;;;;;;5006950;28;19929;-76
2022/04/12 01:57:59;;;;;;;;;;;103.20;2227.20;;;;;;5005896;28;20496;-76
2022/04/12 02:00:25;;;;;;;30.33;16.17;;;103.20;2227.20;;;;;;5006888;28;19944;-76
2022/04/12 02:02:51;;;;;;;;;;;103.30;2227.20;;;;;;5005360;28;20056;-76
2022/04/12 02:05:17;;;;;;;30.05;14.52;;;128.00;2252.80;;;;;;5006993;28;19948;-80
2022/04/12 02:07:45;;;;;;;;;;;128.10;2252.80;;;;;;5004533;28;20486;-75
2022/04/12 02:10:11;;;;;;;31.65;15.75;;;128.20;2252.80;;;;;;5007719;28;19906;-75
2022/04/12 02:12:37;;;;;;;;;;;128.30;2252.80;;;;;;5005302;28;20022;-76
2022/04/12 02:15:03;;;;;;;33.28;17.00;;;128.30;2252.80;;;;;;5006277;28;20274;-76
2022/04/12 02:17:29;;;;;;;27.83;14.63;;;128.50;2252.80;;;;;;5004392;28;20076;-76
2022/04/12 02:19:55;;;;;;;;;;;128.60;2252.80;;;;;;5006171;28;20042;-76
2022/04/12 02:22:21;;;;;;;31.52;16.08;;;128.60;2252.80;;;;;;5013844;28;20424;-76
2022/04/12 02:24:47;;;;;;;29.52;15.82;;;128.70;2252.80;;;;;;5003982;28;20026;-80
2022/04/12 02:27:12;;;;;;;;;;;128.50;2252.80;;;;;;5004284;28;20100;-75
2022/04/12 02:29:38;;;;;;;32.58;16.45;;;128.60;2252.80;;;;;;5005212;28;19948;-75
2022/04/12 02:32:04;;;;;;;;;;;128.40;2252.80;;;;;;5005905;28;20025;-76
2022/04/12 02:34:29;;;;;;;36.20;16.35;;;128.30;2252.80;;;;;;5005338;28;19905;-76
2022/04/12 02:36:55;;;;;;;;;;;128.20;2252.80;;;;;;5005707;28;20513;-75
2022/04/12 02:39:21;;;;;;;30.33;16.30;;;128.00;2252.80;;;;;;5006869;28;20269;-81
2022/04/12 02:41:46;;;;;;;;;;;103.20;2227.20;;;;;;5004405;28;20065;-75
2022/04/12 02:44:12;;;;;;;33.15;16.30;;;103.30;2227.20;;;;;;5004881;28;19905;-75
2022/04/12 02:46:38;;;;;;;30.80;17.58;;;103.20;2227.20;;;;;;5005011;28;20033;-77
2022/04/12 02:49:03;;;;;;;;;;;103.00;2227.20;;;;;;5004672;28;20526;-76
2022/04/12 02:51:29;;;;;;;29.52;16.05;;;102.90;2227.20;;;;;;5004557;28;19972;-76
2022/04/12 02:53:55;;;;;;;;;;;102.90;2227.20;;;;;;5006998;28;20019;-76
2022/04/12 02:56:20;;;;;;;33.42;16.13;;;102.80;2227.20;;;;;;5002205;28;20289;-75
2022/04/12 02:58:46;;;;;;;;;;;102.70;2227.20;;;;;;5005691;28;20027;-75
2022/04/12 03:01:11;;;;;;;37.22;16.98;;;102.60;2227.20;;;;;;5004529;28;19913;-75
2022/04/12 03:03:37;;;;;;;;;;;102.40;2227.20;;;;;;5003533;28;20517;-76
2022/04/12 03:06:03;;;;;;;30.13;16.58;;;102.50;2227.20;;;;;;5003470;28;19996;-81
2022/04/12 03:08:28;;;;;;;;;;;102.40;2227.20;;;;;;5007852;28;20026;-80
2022/04/12 03:10:54;;;;;;;35.85;17.13;;;77.50;2227.20;;;;;;5005231;28;20365;-76
2022/04/12 03:13:20;;;;;;;;;;;77.40;2227.20;;;;;;5007339;28;20097;-75
2022/04/12 03:15:45;;;;;;;32.65;16.23;;;77.40;2227.20;;;;;;5006236;28;20350;-75
2022/04/12 03:18:11;;;;;;;;;;;77.40;2227.20;;;;;;5005954;28;20041;-75
2022/04/12 03:20:37;;;;;;;35.03;16.73;;;77.30;2227.20;;;;;;5003280;28;19906;-76
2022/04/12 03:23:02;;;;;;;;;;;77.30;2227.20;;;;;;5003439;28;20036;-76
2022/04/12 03:25:28;;;;;;;35.30;17.25;;;77.40;2227.20;;;;;;5005865;28;19917;-75
2022/04/12 03:27:54;;;;;;;;;;;77.40;2227.20;;;;;;5004243;28;20057;-81
2022/04/12 03:30:19;;;;;;;34.97;18.13;;;77.50;2227.20;;;;;;5006031;28;20333;-79
2022/04/12 03:32:45;;;;;;;;;;;77.50;2227.20;;;;;;5003556;28;20019;-75
2022/04/12 03:35:11;;;;;;;36.05;17.92;;;77.50;2227.20;;;;;;5004385;28;19909;-74
2022/04/12 03:37:36;;;;;;;;;;;77.50;2227.20;;;;;;5005347;28;20030;-75
2022/04/12 03:40:03;;;;;;;32.83;18.05;;;77.50;2227.20;;;;;;5003390;28;20391;-80
2022/04/12 03:42:29;;;;;;;42.13;18.77;;;77.40;2227.20;;;;;;5007136;28;20481;-76
2022/04/12 03:44:54;;;;;;;39.72;20.90;;;77.40;2227.20;;;;;;5003282;28;20022;-76
2022/04/12 03:47:20;;;;;;;;;;;77.40;2227.20;;;;;;5004160;28;20042;-76
2022/04/12 03:49:46;;;;;;;40.47;20.63;;;77.40;2227.20;;;;;;5002732;28;20478;-76
2022/04/12 03:52:11;;;;;;;;;;;77.40;2227.20;;;;;;5006298;28;20033;-77
2022/04/12 03:54:37;;;;;;;39.80;20.17;;;77.50;2227.20;;;;;;5001167;28;19918;-81
2022/04/12 03:57:03;;;;;;;;;;;77.60;2227.20;;;;;;5004858;28;20579;-76
2022/04/12 03:59:28;;;;;;;43.15;21.35;;;77.70;2227.20;;;;;;5002495;28;19914;-75
2022/04/12 04:01:54;;;;;;;;;;;102.40;2227.20;;;;;;5005198;28;20025;-75
2022/04/12 04:04:20;;;;;;;39.28;20.10;;;77.70;2227.20;;;;;;5003558;28;19906;-80
2022/04/12 04:06:45;;;;;;;;;;;77.60;2227.20;;;;;;5003182;28;20034;-81
2022/04/12 04:09:12;;;;;;;41.25;22.20;;;77.60;2227.20;;;;;;5002118;28;19910;-75
2022/04/12 04:11:40;;;;;;;45.05;21.92;;;77.60;2227.20;;;;;;5003641;28;20374;-75
2022/04/12 04:14:10;;;;;;;45.60;22.20;;;77.70;2227.20;;;;;;5003081;28;20096;-75
2022/04/12 04:16:38;;;;;;;45.63;22.42;;;77.60;2227.20;;;;;;5002865;28;20025;-76
2022/04/12 04:19:04;;;;;;;44.75;23.45;;;77.70;2227.20;;;;;;5007002;28;20067;-79
2022/04/12 04:21:30;;;;;;;42.80;22.52;;;102.60;2227.20;;;;;;5003701;28;20014;-75
2022/04/12 04:23:55;;;;;;;;;;;102.50;2227.20;;;;;;5003407;28;20040;-75
2022/04/12 04:26:21;;;;;;;49.60;23.08;;;102.50;2227.20;;;;;;5003428;28;20373;-76
2022/04/12 04:28:49;;;;;;;;;;;102.80;2227.20;;;;;;5002953;28;20029;-76
2022/04/12 04:31:15;;;;;;;;;;;102.80;2227.20;;;;;;5003836;28;20397;-75
2022/04/12 04:33:40;;;;;;;29.58;17.27;;;103.00;2227.20;;;;;;5001267;28;20409;-75
2022/04/12 04:36:06;;;;;;;;;;;103.00;2227.20;;;;;;5004684;28;20030;-76
2022/04/12 04:38:32;;;;;;;35.28;19.77;;;103.00;2227.20;;;;;;5003925;28;19906;-75
2022/04/12 04:40:57;;;;;;;;;;;103.00;2227.20;;;;;;5004182;28;20037;-75
2022/04/12 04:43:23;;;;;;;42.03;19.90;;;103.00;2227.20;;;;;;5004123;28;19922;-75
2022/04/12 04:45:49;;;;;;;;;;;103.00;2227.20;;;;;;5000771;28;20044;-75
2022/04/12 04:48:15;;;;;;;38.83;20.67;;;103.10;2227.20;;;;;;5002507;28;19922;-74
2022/04/12 04:50:41;;;;;;;;;;;103.20;2227.20;;;;;;5005471;28;20101;-76
2022/04/12 04:53:09;;;;;;;42.22;20.48;;;103.20;2227.20;;;;;;5002127;28;19997;-76
2022/04/12 04:55:36;;;;;;;43.13;20.27;;;128.10;2252.80;;;;;;5003274;28;20502;-75
2022/04/12 04:58:04;;;;;;;42.63;19.98;;;128.00;2252.80;;;;;;5003552;28;20049;-75
2022/04/12 05:00:31;;;;;;;42.78;20.08;;;128.10;2252.80;;;;;;5002055;28;20505;-81
2022/04/12 05:02:58;;;;;;;36.75;20.75;;;128.20;2252.80;;;;;;5003353;28;20041;-75
2022/04/12 05:05:24;;;;;;;40.90;21.65;;;128.30;2252.80;;;;;;5001543;28;20030;-75
2022/04/12 05:07:53;;;;;;;42.03;20.83;;;128.40;2252.80;;;;;;5003091;28;20057;-75
2022/04/12 05:10:21;;;;;;;41.33;20.15;;;128.50;2252.80;;;;;;5004204;28;20030;-76
2022/04/12 05:12:47;;;;;;;35.13;20.27;;;128.70;2252.80;;;;;;5001714;28;20463;-78
2022/04/12 05:15:13;;;;;;;49.90;20.67;;;128.80;2252.80;;;;;;5001263;28;20026;-75
2022/04/12 05:17:39;;;;;;;;;;;128.90;2252.80;;;;;;5001814;28;20025;-77
2022/04/12 05:20:09;;;;;;;41.88;22.17;;;153.70;2252.80;;;;;;5003618;28;20365;-77
2022/04/12 05:22:35;;;;;;;40.38;20.48;;;153.80;2252.80;;;;;;5002523;28;20096;-77
2022/04/12 05:25:01;;;;;;;38.40;20.17;;;153.90;2252.80;;;;;;5009216;28;20096;-77
2022/04/12 05:27:30;;;;;;;;;;;154.30;2252.80;;;;;;5003355;28;20069;-76
2022/04/12 05:30:01;;;;;;;44.60;23.15;;;153.90;2252.80;;;;;;5001809;28;20270;-79
2022/04/12 05:32:27;;;;;;;46.47;24.20;;;153.90;2252.80;;;;;;5000427;28;20018;-76
2022/04/12 05:34:52;;;;;;;;;;;153.90;2252.80;;;;;;5001153;28;20026;-75
2022/04/12 05:37:19;;;;;;;41.85;21.23;;;154.10;2252.80;;;;;;5007285;28;19964;-76
2022/04/12 05:39:44;;;;;;;36.22;19.45;;;154.20;2252.80;;;;;;5001245;28;20031;-74
2022/04/12 05:42:10;;;;;;;;;;;154.40;2252.80;;;;;;5002827;28;20385;-75
2022/04/12 05:44:36;;;;;;;38.50;18.90;;;154.50;2252.80;;;;;;5002318;28;20365;-77
2022/04/12 05:47:02;;;;;;;;;;;179.20;2252.80;;;;;;5007428;28;20088;-74
2022/04/12 05:49:29;;;;;;;29.20;15.57;;;179.30;2252.80;;;;;;5013110;28;19959;-75
2022/04/12 05:51:55;;;;;;;38.85;20.27;;;179.30;2252.80;;;;;;5008324;28;20036;-78
2022/04/12 05:54:21;;;;;;;35.58;19.38;;;179.30;2252.80;;;;;;5003972;28;20026;-75
2022/04/12 05:56:47;;;;;;;37.42;21.00;;;179.40;2252.80;;;;;;4999031;28;20072;-75
2022/04/12 05:59:13;;;;;;;;;;;179.70;2252.80;;;;;;5003789;28;20058;-76
2022/04/12 06:01:39;;;;;;;33.20;18.67;;;179.80;2252.80;;;;;;5001175;28;19917;-74
2022/04/12 06:04:05;;;;;;;;;;;179.90;2252.80;;;;;;5011685;28;20025;-75
2022/04/12 06:06:32;;;;;;;39.08;18.83;;;180.10;2252.80;;;;;;5012876;28;19914;-76
2022/04/12 06:08:58;;;;;;;36.85;21.38;;;180.10;2252.80;;;;;;5012325;28;20026;-77
2022/04/12 06:11:24;;;;;;;39.95;22.45;;;204.90;2252.80;;;;;;5012147;28;20037;-81
2022/04/12 06:13:49;;;;;;;;;;;205.00;2252.80;;;;;;5012610;28;20402;-75
2022/04/12 06:16:15;;;;;;;33.65;17.70;;;205.10;2252.80;;;;;;5013217;28;20363;-81
2022/04/12 06:18:41;;;;;;;;;;;205.10;2252.80;;;;;;5013566;28;20038;-77
2022/04/12 06:21:06;;;;;;;34.90;15.93;;;205.10;2252.80;;;;;;5015880;28;19993;-77
2022/04/12 06:23:33;;;;;;;;;;;205.20;2252.80;;;;;;5017409;28;20727;-84
2022/04/12 06:25:58;;;;;;;39.63;17.40;;;205.30;2252.80;;;;;;5016981;28;20004;-75
2022/04/12 06:28:24;;;;;;;;;;;205.40;2252.80;;;;;;5017268;28;20133;-77
2022/04/12 06:30:50;;;;;;;31.33;16.83;;;205.60;2252.80;;;;;;5015986;28;19905;-77
2022/04/12 06:33:15;;;;;;;;;;;205.70;2252.80;;;;;;5017068;28;20029;-81
2022/04/12 06:35:41;;;;;;;27.77;16.45;;;230.40;2252.80;;;;;;5002124;28;19968;-77
2022/04/12 06:38:08;;;;;;;;;;;230.50;2252.80;;;;;;4996866;28;20541;-78
2022/04/12 06:40:35;;;;;;;25.35;14.35;;;230.50;2252.80;;;;;;5014949;28;19906;-75
2022/04/12 06:43:01;;;;;;;33.83;17.00;;;230.60;2252.80;;;;;;5015403;28;20382;-76
2022/04/12 06:45:27;;;;;;;23.65;13.75;;;230.70;2252.80;;;;;;4995595;28;20038;-75
2022/04/12 06:47:55;;;;;;;28.17;13.15;;;230.90;2252.80;;;;;;4996750;28;20069;-75
2022/04/12 06:50:21;;;;;;;29.55;13.82;;;231.00;2252.80;;;;;;4995747;28;20371;-75
2022/04/12 06:52:47;;;;;;;21.92;12.05;;;231.10;2252.80;;;;;;4996778;28;20026;-80
2022/04/12 06:55:13;;;;;;;19.05;12.02;;;231.30;2252.80;;;;;;4996491;28;20525;-74
2022/04/12 06:57:38;;;;;;;;;;;231.30;2252.80;;;;;;4997274;28;20031;-74
2022/04/12 07:00:08;;;;;;;33.00;13.02;;;256.10;2252.80;;;;;;4996555;28;19906;-77
2022/04/12 07:02:35;;;;;;;28.02;13.10;;;256.40;2252.80;;;;;;4996517;28;20027;-82
2022/04/12 07:05:01;;;;;;;19.98;12.35;;;256.50;2252.80;;;;;;4996455;28;20030;-78
2022/04/12 07:07:27;;;;;;;18.83;11.25;;;256.70;2252.80;;;;;;4995131;28;20034;-75
2022/04/12 07:09:55;;;;;;;23.77;12.80;;;256.90;2252.80;;;;;;4996120;28;20037;-75
2022/04/12 07:12:21;;;;;;;25.92;13.57;;;281.70;2278.40;;;;;;4996632;28;20101;-77
2022/04/12 07:14:46;;;;;;;23.27;12.30;;;281.70;2278.40;;;;;;4996415;28;20494;-75
2022/04/12 07:17:12;;;;;;;;;;;282.00;2278.40;;;;;;4996820;28;20033;-75
2022/04/12 07:19:38;;;;;;;20.63;9.98;;;282.00;2278.40;;;;;;4994895;28;19905;-81
2022/04/12 07:22:09;;;;;;;25.75;11.00;;;282.00;2278.40;;;;;;4996218;28;20094;-78
2022/04/12 07:24:35;;;;;;;16.70;9.85;;;282.30;2278.40;;;;;;4994980;28;20645;-77
2022/04/12 07:27:01;;;;;;;15.43;8.80;;;282.40;2201.60;;;;;;4996360;28;20173;-83
2022/04/12 07:29:27;;;;;;;15.77;7.90;;;307.20;2227.20;;;;;;4994763;28;20069;-77
2022/04/12 07:31:52;;;;;;;;;;;307.20;2176.00;;;;;;4996283;28;20030;-76
2022/04/12 07:34:18;;;;;;;18.05;9.90;;;282.50;2099.20;;;;;;4996016;28;19905;-77
2022/04/12 07:36:47;;;;;;;20.00;9.15;;;307.20;2150.40;;;;;;4995950;28;20049;-83
2022/04/12 07:39:16;;;;;;;14.43;8.80;;;307.40;2099.20;;;;;;4995987;28;20046;-76
2022/04/12 07:41:42;;;;;;;16.35;10.10;;;307.60;2073.60;;;;;;4995906;28;20105;-77
2022/04/12 07:44:08;;;;;;;15.98;9.05;;;307.70;2201.60;;;;;;4994788;28;20022;-77
2022/04/12 07:46:34;;;;;;;17.23;8.07;;;307.80;2073.60;;;;;;4994657;28;20053;-76
2022/04/12 07:49:00;;;;;;;16.13;8.68;;;308.00;2022.40;;;;;;4994513;28;20474;-77
2022/04/12 07:51:26;;;;;;;22.65;9.07;;;308.10;1971.20;;;;;;4995658;28;20537;-76
2022/04/12 07:53:52;;;;;;;13.73;8.25;;;332.90;1996.80;;;;;;4994361;28;20042;-77
2022/04/12 07:56:18;;;;;;;14.15;7.90;;;332.80;1971.20;;;;;;4995465;28;20102;-77
2022/04/12 07:58:44;;;;;;;;;;;333.00;1996.80;;;;;;4995875;28;20030;-78
2022/04/12 08:01:09;;;;;;;15.50;7.70;;;333.10;1945.60;;;;;;4995489;28;19937;-77
2022/04/12 08:03:36;;;;;;;14.48;7.05;;;333.10;1868.80;;;;;;4995462;28;20026;-77
2022/04/12 08:06:03;;;;;;;13.77;7.47;;;333.30;1868.80;;;;;;4994404;28;20019;-77
2022/04/12 08:08:29;;;;;;;19.25;7.95;;;333.40;1817.60;;;;;;4994262;28;20502;-77
2022/04/12 08:10:55;;;;;;;14.55;6.80;;;333.40;1817.60;;;;;;4994109;28;20034;-77
2022/04/12 08:13:20;;;;;;;10.75;6.95;;;333.40;1689.60;;;;;;4994257;28;20029;-80
2022/04/12 08:15:46;;;;;;;15.13;7.75;;;333.50;1766.40;;;;;;4994538;28;20030;-77
2022/04/12 08:18:12;;;;;;;;;;;333.60;1792.00;;;;;;4994699;28;20062;-80
2022/04/12 08:20:38;;;;;;;12.18;6.50;;;333.60;1740.80;;;;;;4995298;28;19905;-81
2022/04/12 08:23:04;;;;;;;10.25;6.15;;;333.70;1766.40;;;;;;4994334;28;20475;-80
2022/04/12 08:25:30;;;;;;;11.60;6.28;;;358.40;1766.40;;;;;;4995061;28;20023;-77
2022/04/12 08:27:55;;;;;;;10.73;6.13;;;358.50;1715.20;;;;;;4993883;28;20052;-77
2022/04/12 08:30:21;;;;;;;12.95;6.47;;;358.50;1715.20;;;;;;4995251;28;20055;-77
2022/04/12 08:32:47;;;;;;;10.77;6.47;;;358.60;1792.00;;;;;;4993985;28;20031;-80
2022/04/12 08:35:14;;;;;;;11.77;6.35;;;358.60;1689.60;;;;;;4993737;28;20033;-75
2022/04/12 08:37:40;;;;;;;20.75;6.57;;;358.70;1664.00;;;;;;4993732;28;20545;-82
2022/04/12 08:40:06;;;;;;;10.05;5.50;;;358.80;1664.00;;;;;;4995051;28;20030;-78
2022/04/12 08:42:32;;;;;;;10.85;4.93;;;358.80;1638.40;;;;;;4994180;28;20026;-82
2022/04/12 08:51:46;;;;;;;10.05;5.78;;;358.80;1612.80;;;;;;5217947;23;20593;-82
2022/04/12 08:54:12;;;;;;;12.48;5.88;;;358.80;1664.00;;;;;;5041873;28;20037;-75
2022/04/12 08:56:40;;;;;;;15.55;6.53;;;358.90;1587.20;;;;;;5034694;28;20021;-78
2022/04/12 08:59:05;;;;;;;12.60;5.30;;;358.90;1587.20;;;;;;5035112;28;20031;-82
2022/04/12 09:01:31;;;;;;;8.63;4.90;;;359.00;1561.60;;;;;;5034833;28;20025;-77
2022/04/12 09:03:57;;;;;;;13.45;5.22;;;359.00;1561.60;;;;;;5034956;28;20499;-83
2022/04/12 09:06:23;;;;;;;12.93;5.68;;;359.20;1587.20;;;;;;5034396;28;20024;-80
2022/04/12 09:08:48;;;;;;;8.68;4.28;;;359.30;1587.20;;;;;;5034516;28;20028;-84
2022/04/12 09:11:16;;;;;;;8.75;5.20;;;384.00;1510.40;;;;;;5052848;28;20033;-77
2022/04/12 09:13:58;;;;;;;12.10;6.18;;;384.20;1587.20;;;;;;5052478;28;20104;-78
2022/04/12 09:16:24;;;;;;;8.45;4.43;;;384.10;1510.40;;;;;;5034845;28;20120;-76
2022/04/12 09:18:50;;;;;;;7.40;4.70;;;384.40;1536.00;;;;;;5034686;28;20052;-75
2022/04/12 09:21:17;;;;;;;9.55;4.57;;;384.40;1510.40;;;;;;5052018;28;20397;-75
2022/04/12 09:23:46;;;;;;;12.05;5.38;;;384.40;1433.60;;;;;;5052175;28;20108;-75
2022/04/12 09:26:23;;;;;;;11.27;5.72;;;384.40;1433.60;;;;;;5034412;28;20151;-77
2022/04/12 09:28:54;;;;;;;7.93;4.82;;;384.40;1408.00;;;;;;5034520;28;20025;-77
2022/04/12 09:31:22;;;;;;;7.40;5.03;;;384.50;1382.40;;;;;;5052252;28;20104;-78
2022/04/12 09:33:50;;;;;;;10.02;4.82;;;384.50;1356.80;;;;;;5034549;28;20025;-77
2022/04/12 09:36:16;;;;;;;10.90;5.80;;;384.60;1356.80;;;;;;5034312;28;20025;-78
2022/04/12 09:38:43;;;;;;;11.05;5.28;;;384.70;1459.20;;;;;;5034122;28;20037;-76
2022/04/12 09:41:22;;;;;;;13.93;5.53;;;384.80;1356.80;;;;;;5034522;28;20472;-75
2022/04/12 09:43:58;;;;;;;13.43;5.38;;;384.90;1382.40;;;;;;5034330;28;20064;-75
2022/04/12 09:46:27;;;;;;;13.43;5.03;;;409.60;1433.60;;;;;;5034441;28;20013;-77
2022/04/12 09:48:53;;;;;;;8.77;5.00;;;384.90;1382.40;;;;;;5034175;28;20120;-77
2022/04/12 09:51:22;;;;;;;10.93;4.63;;;409.70;1382.40;;;;;;5051426;28;20057;-75
2022/04/12 09:53:48;;;;;;;8.70;5.57;;;409.90;1408.00;;;;;;5035738;28;20021;-76
2022/04/12 09:56:24;;;;;;;8.23;5.05;;;410.20;1356.80;;;;;;5037249;28;20029;-78
2022/04/12 09:58:54;;;;;;;;;;;410.20;1280.00;;;;;;5038563;28;20477;-78
2022/04/12 10:01:20;;;;;;;10.07;4.97;;;410.30;1305.60;;;;;;5055743;28;19950;-78
2022/04/12 10:03:57;;;;;;;9.82;5.32;;;410.50;1356.80;;;;;;5037994;28;20029;-78
2022/04/12 10:06:24;;;;;;;11.50;5.55;;;410.50;1331.20;;;;;;5038094;28;20480;-78
2022/04/12 10:08:59;;;;;;;8.45;5.18;;;435.50;1408.00;;;;;;5055908;28;20025;-80
2022/04/12 10:11:25;;;;;;;9.30;5.10;;;435.20;1331.20;;;;;;5037081;28;20065;-76
2022/04/12 10:13:52;;;;;;;15.95;5.68;;;435.30;1331.20;;;;;;5037019;28;20073;-75
2022/04/12 10:16:20;;;;;;;11.55;5.18;;;435.70;1356.80;;;;;;5037091;28;20021;-78
2022/04/12 10:18:46;;;;;;;10.27;5.35;;;435.90;1305.60;;;;;;5055235;28;20385;-80
2022/04/12 10:21:13;;;;;;;9.38;5.15;;;436.10;1254.40;;;;;;5037284;28;20048;-78
2022/04/12 10:23:47;;;;;;;8.50;5.25;;;460.80;1305.60;;;;;;5037798;28;20024;-83
2022/04/12 10:26:18;;;;;;;7.45;5.28;;;435.90;1254.40;;;;;;5037432;28;20021;-78
2022/04/12 10:28:44;;;;;;;8.35;5.60;;;435.90;1254.40;;;;;;5037696;28;20431;-82
2022/04/12 10:31:15;;;;;;;9.50;5.63;;;436.10;1203.20;;;;;;5055061;28;20029;-77
2022/04/12 10:33:50;;;;;;;9.90;5.25;;;460.80;1228.80;;;;;;5055393;28;20037;-77
2022/04/12 10:36:16;;;;;;;13.55;6.25;;;461.10;1203.20;;;;;;5037251;28;20108;-78
2022/04/12 10:38:43;;;;;;;9.85;4.82;;;461.10;1254.40;;;;;;5055826;28;20550;-80
2022/04/12 10:41:34;;;;;;;6.85;4.10;;;436.10;1203.20;;;;;;5037825;28;20473;-81
2022/04/12 10:44:00;;;;;;;8.20;4.50;;;460.80;1254.40;;;;;;5055270;28;20100;-83
2022/04/12 10:46:45;;;;;;;10.23;4.50;;;461.10;1280.00;;;;;;5036967;28;20112;-78
2022/04/12 10:49:12;;;;;;;8.77;5.00;;;461.40;1203.20;;;;;;5037769;28;20029;-79
2022/04/12 10:51:41;;;;;;;9.73;5.43;;;461.70;1177.60;;;;;;5036285;28;20052;-79
2022/04/12 10:54:28;;;;;;;7.93;5.32;;;486.40;1152.00;;;;;;5055212;28;20060;-78
2022/04/12 10:57:17;;;;;;;8.57;5.10;;;486.70;1177.60;;;;;;5037441;28;20040;-81
2022/04/12 10:59:54;;;;;;;8.35;4.03;;;486.60;1177.60;;;;;;5042027;28;20059;-78
2022/04/12 11:02:20;;;;;;;10.93;4.63;;;486.50;1203.20;;;;;;5037024;28;20024;-80
2022/04/12 11:04:46;;;;;;;7.75;5.00;;;486.50;1203.20;;;;;;5054552;28;20067;-80
2022/04/12 11:07:33;;;;;;;12.52;5.40;;;486.40;1177.60;;;;;;5036778;28;20071;-79
2022/04/12 11:10:17;;;;;;;7.10;4.35;;;486.40;1228.80;;;;;;5055137;28;20024;-80
2022/04/12 11:12:44;;;;;;;9.32;3.60;;;461.70;1203.20;;;;;;5036094;28;20040;-78
2022/04/12 11:15:23;;;;;;;10.68;4.65;;;486.70;1177.60;;;;;;5054044;28;20074;-79
2022/04/12 11:17:49;;;;;;;8.10;4.50;;;486.80;1203.20;;;;;;5035797;28;20040;-78
2022/04/12 11:20:22;;;;;;;14.98;5.28;;;486.80;1152.00;;;;;;5053075;28;20033;-77
2022/04/12 11:22:58;;;;;;;7.38;4.57;;;487.00;1152.00;;;;;;5035044;28;20060;-77
2022/04/12 11:25:26;;;;;;;8.23;4.75;;;487.00;1152.00;;;;;;5053942;28;20017;-81
2022/04/12 11:27:59;;;;;;;9.70;5.20;;;487.20;1100.80;;;;;;5035363;28;20045;-78
2022/04/12 11:30:26;;;;;;;8.45;4.43;;;487.10;1126.40;;;;;;5034500;28;20028;-79
2022/04/12 11:32:56;;;;;;;8.32;5.72;;;487.10;1152.00;;;;;;5036015;28;20021;-77
2022/04/12 11:35:25;;;;;;;6.60;4.22;;;486.70;1152.00;;;;;;5033940;28;20041;-80
2022/04/12 11:37:52;;;;;;;7.20;4.50;;;486.80;1177.60;;;;;;5016440;28;20062;-78
2022/04/12 11:40:18;;;;;;;6.97;4.53;;;487.10;1152.00;;;;;;5016533;28;20025;-80
2022/04/12 11:42:43;;;;;;;6.50;4.50;;;487.10;1152.00;;;;;;5016846;28;20028;-80
2022/04/12 11:45:11;;;;;;;9.93;5.35;;;487.30;1100.80;;;;;;5016356;28;20033;-79
2022/04/12 11:47:39;;;;;;;10.93;5.45;;;512.20;1100.80;;;;;;5016248;28;20508;-80
2022/04/12 11:50:17;;;;;;;8.57;4.63;;;487.30;1126.40;;;;;;5016178;28;20465;-79
2022/04/12 11:52:45;;;;;;;8.43;5.00;;;487.20;1177.60;;;;;;5033294;28;20045;-80
2022/04/12 11:55:11;;;;;;;10.13;6.05;;;487.20;1177.60;;;;;;5034506;28;20051;-78
2022/04/12 11:57:37;;;;;;;6.95;4.38;;;512.10;1075.20;;;;;;5016053;28;20029;-79
2022/04/12 12:00:04;;;;;;;8.95;4.65;;;512.20;1049.60;;;;;;5016253;28;20029;-81
2022/04/12 12:02:32;;;;;;;15.10;4.75;;;512.30;1024.00;;;;;;5015961;28;20043;-80
2022/04/12 12:05:04;;;;;;;12.02;4.35;;;512.10;1075.20;;;;;;5019304;28;20035;-80
2022/04/12 12:07:30;;;;;;;10.02;4.63;;;512.10;1126.40;;;;;;5032068;28;20049;-80
2022/04/12 12:09:57;;;;;;;14.50;5.10;;;512.00;1049.60;;;;;;5035201;28;20036;-79
2022/04/12 12:12:40;;;;;;;15.80;4.50;;;512.00;1126.40;;;;;;5052817;28;20051;-78
2022/04/12 12:15:26;;;;;;;8.57;4.45;;;512.50;1075.20;;;;;;5050002;28;20017;-79
2022/04/12 12:17:57;;;;;;;7.40;3.70;;;512.80;1024.00;;;;;;5031889;28;20120;-80
2022/04/12 12:20:25;;;;;;;7.88;4.30;;;512.40;1075.20;;;;;;5033141;28;20488;-80
2022/04/12 12:22:55;;;;;;;8.90;4.20;;;512.80;1075.20;;;;;;5034065;28;20045;-80
2022/04/12 12:25:42;;;;;;;15.68;3.95;;;512.80;1024.00;;;;;;5032779;28;20025;-80
2022/04/12 12:28:20;;;;;;;10.65;4.80;;;512.90;998.40;;;;;;5033450;28;20087;-79
2022/04/12 12:30:55;;;;;;;9.70;4.25;;;537.60;1024.00;;;;;;5032969;28;20017;-80
2022/04/12 12:33:25;;;;;;;6.68;4.30;;;537.70;1024.00;;;;;;5032441;28;20051;-79
2022/04/12 12:35:51;;;;;;;8.93;4.55;;;512.60;1075.20;;;;;;5032300;28;20082;-79